createdAt,value
2023-05-16T00:00:22.057Z,38.17
2023-05-16T00:01:21.942Z,38.21
2023-05-16T00:02:22.075Z,38.11
2023-05-16T00:03:22.261Z,38.18
2023-05-16T00:04:22.201Z,38.14
2023-05-16T00:05:22.673Z,38.15
2023-05-16T00:06:22.322Z,38.15
2023-05-16T00:07:22.415Z,38.14
2023-05-16T00:08:22.477Z,38.12
2023-05-16T00:09:23.651Z,38.12
2023-05-16T00:10:22.650Z,38.13
2023-05-16T00:11:22.729Z,38.11
2023-05-16T00:12:22.822Z,38.12
2023-05-16T00:13:22.890Z,38.10
2023-05-16T00:14:22.962Z,38.12
2023-05-16T00:15:24.148Z,38.11
2023-05-16T00:16:23.180Z,38.11
2023-05-16T00:17:23.257Z,38.10
2023-05-16T00:18:23.282Z,38.13
2023-05-16T00:19:23.429Z,38.15
2023-05-16T00:20:23.667Z,38.09
2023-05-16T00:21:23.889Z,38.08
2023-05-16T00:22:23.606Z,38.08
2023-05-16T00:23:23.683Z,38.17
2023-05-16T00:24:23.758Z,38.10
2023-05-16T00:25:23.853Z,38.15
2023-05-16T00:26:23.909Z,38.08
2023-05-16T00:27:24.000Z,38.07
2023-05-16T00:28:24.083Z,38.07
2023-05-16T00:29:24.141Z,38.05
2023-05-16T00:30:24.349Z,38.08
2023-05-16T00:31:24.314Z,38.05
2023-05-16T00:32:24.423Z,38.08
2023-05-16T00:33:24.452Z,38.08
2023-05-16T00:34:24.574Z,38.08
2023-05-16T00:35:25.132Z,38.10
2023-05-16T00:36:24.730Z,38.08
2023-05-16T00:37:24.751Z,38.07
2023-05-16T00:38:24.830Z,38.05
2023-05-16T00:39:24.909Z,38.06
2023-05-16T00:40:25.325Z,38.14
2023-05-16T00:41:25.069Z,38.04
2023-05-16T00:42:25.140Z,38.04
2023-05-16T00:43:25.225Z,38.04
2023-05-16T00:44:27.208Z,38.01
2023-05-16T00:45:25.385Z,38.02
2023-05-16T00:46:25.502Z,38.02
2023-05-16T00:47:25.596Z,37.98
2023-05-16T00:48:25.616Z,38.00
2023-05-16T00:49:26.707Z,38.01
2023-05-16T00:50:26.058Z,38.01
2023-05-16T00:51:25.847Z,38.01
2023-05-16T00:52:25.927Z,37.98
2023-05-16T00:53:27.524Z,38.00
2023-05-16T00:54:26.085Z,38.02
2023-05-16T00:55:26.189Z,37.98
2023-05-16T00:56:26.251Z,38.04
2023-05-16T00:57:26.321Z,38.01
2023-05-16T00:58:27.146Z,38.02
2023-05-16T00:59:26.470Z,38.01
2023-05-16T01:00:26.873Z,37.98
2023-05-16T01:01:26.640Z,38.00
2023-05-16T01:02:26.764Z,37.97
2023-05-16T01:03:26.896Z,37.97
2023-05-16T01:04:26.926Z,38.00
2023-05-16T01:05:27.164Z,37.97
2023-05-16T01:06:27.012Z,37.97
2023-05-16T01:07:27.099Z,37.98
2023-05-16T01:08:27.172Z,37.98
2023-05-16T01:09:27.248Z,37.95
2023-05-16T01:10:27.669Z,37.95
2023-05-16T01:11:27.409Z,37.95
2023-05-16T01:12:27.482Z,37.97
2023-05-16T01:13:27.565Z,37.95
2023-05-16T01:14:27.641Z,37.93
2023-05-16T01:15:27.882Z,37.94
2023-05-16T01:16:28.718Z,37.95
2023-05-16T01:17:27.935Z,37.95
2023-05-16T01:18:27.947Z,37.93
2023-05-16T01:19:28.179Z,37.94
2023-05-16T01:20:28.086Z,37.95
2023-05-16T01:21:28.141Z,37.91
2023-05-16T01:22:28.203Z,37.97
2023-05-16T01:23:28.229Z,37.93
2023-05-16T01:24:28.297Z,37.95
2023-05-16T01:25:28.568Z,37.91
2023-05-16T01:26:28.479Z,37.91
2023-05-16T01:27:28.453Z,37.93
2023-05-16T01:28:30.249Z,37.92
2023-05-16T01:29:28.565Z,37.93
2023-05-16T01:30:28.635Z,37.97
2023-05-16T01:31:28.753Z,37.88
2023-05-16T01:32:28.851Z,37.87
2023-05-16T01:33:28.857Z,37.87
2023-05-16T01:34:28.927Z,37.91
2023-05-16T01:35:29.938Z,37.88
2023-05-16T01:36:28.936Z,37.90
2023-05-16T01:37:28.948Z,37.91
2023-05-16T01:38:30.711Z,37.88
2023-05-16T01:39:28.957Z,37.94
2023-05-16T01:40:29.100Z,37.91
2023-05-16T01:41:28.981Z,37.87
2023-05-16T01:42:28.978Z,37.91
2023-05-16T01:43:28.986Z,37.91
2023-05-16T01:44:29.069Z,37.90
2023-05-16T01:45:29.418Z,37.84
2023-05-16T01:46:29.251Z,37.88
2023-05-16T01:47:29.326Z,37.86
2023-05-16T01:48:29.407Z,37.90
2023-05-16T01:49:29.365Z,37.86
2023-05-16T01:50:29.595Z,37.87
2023-05-16T01:51:29.542Z,37.81
2023-05-16T01:52:29.640Z,37.84
2023-05-16T01:53:29.702Z,37.87
2023-05-16T01:54:29.772Z,37.86
2023-05-16T01:55:29.812Z,37.84
2023-05-16T01:56:30.757Z,37.86
2023-05-16T01:57:29.974Z,37.86
2023-05-16T01:58:30.033Z,37.88
2023-05-16T01:59:30.102Z,37.84
2023-05-16T02:00:31.147Z,37.86
2023-05-16T02:01:30.279Z,37.81
2023-05-16T02:02:30.314Z,37.85
2023-05-16T02:03:30.414Z,37.88
2023-05-16T02:04:30.464Z,37.86
2023-05-16T02:05:30.533Z,37.86
2023-05-16T02:06:30.598Z,37.81
2023-05-16T02:07:30.666Z,37.81
2023-05-16T02:08:30.734Z,37.80
2023-05-16T02:09:30.807Z,37.79
2023-05-16T02:10:31.665Z,37.81
2023-05-16T02:11:30.947Z,37.80
2023-05-16T02:12:30.995Z,37.80
2023-05-16T02:13:31.070Z,37.79
2023-05-16T02:14:31.116Z,37.81
2023-05-16T02:15:31.177Z,37.81
2023-05-16T02:16:31.288Z,37.79
2023-05-16T02:17:31.278Z,37.80
2023-05-16T02:18:31.350Z,37.83
2023-05-16T02:19:32.200Z,37.82
2023-05-16T02:20:31.427Z,37.79
2023-05-16T02:21:31.600Z,37.79
2023-05-16T02:22:31.567Z,37.81
2023-05-16T02:23:31.636Z,37.81
2023-05-16T02:24:31.715Z,37.76
2023-05-16T02:25:31.784Z,37.84
2023-05-16T02:26:31.881Z,37.79
2023-05-16T02:27:31.926Z,37.80
2023-05-16T02:28:32.018Z,37.76
2023-05-16T02:29:32.097Z,37.79
2023-05-16T02:30:32.186Z,37.81
2023-05-16T02:31:32.690Z,37.79
2023-05-16T02:32:32.347Z,37.81
2023-05-16T02:33:32.442Z,37.77
2023-05-16T02:34:32.498Z,37.74
2023-05-16T02:35:33.705Z,37.74
2023-05-16T02:36:32.675Z,37.81
2023-05-16T02:37:32.749Z,37.80
2023-05-16T02:38:32.842Z,37.74
2023-05-16T02:39:32.932Z,37.74
2023-05-16T02:40:33.000Z,37.74
2023-05-16T02:41:33.076Z,37.76
2023-05-16T02:42:33.165Z,37.76
2023-05-16T02:43:33.246Z,37.79
2023-05-16T02:44:33.318Z,37.72
2023-05-16T02:45:33.401Z,37.73
2023-05-16T02:46:33.539Z,37.73
2023-05-16T02:47:33.603Z,37.74
2023-05-16T02:48:33.651Z,37.75
2023-05-16T02:49:33.738Z,37.72
2023-05-16T02:50:33.834Z,37.73
2023-05-16T02:51:33.942Z,37.73
2023-05-16T02:52:33.986Z,37.70
2023-05-16T02:53:34.078Z,37.70
2023-05-16T02:54:34.143Z,37.79
2023-05-16T02:55:34.234Z,37.72
2023-05-16T02:56:34.308Z,37.68
2023-05-16T02:57:35.197Z,37.73
2023-05-16T02:58:34.462Z,37.76
2023-05-16T02:59:34.557Z,37.73
2023-05-16T03:00:34.623Z,37.74
2023-05-16T03:01:34.766Z,37.70
2023-05-16T03:02:34.847Z,37.72
2023-05-16T03:03:34.940Z,37.69
2023-05-16T03:04:34.894Z,37.72
2023-05-16T03:05:35.677Z,37.69
2023-05-16T03:06:35.001Z,37.67
2023-05-16T03:07:35.036Z,37.68
2023-05-16T03:08:35.063Z,37.68
2023-05-16T03:09:35.099Z,37.70
2023-05-16T03:10:35.156Z,37.64
2023-05-16T03:11:36.814Z,37.69
2023-05-16T03:12:35.244Z,37.66
2023-05-16T03:13:35.300Z,37.64
2023-05-16T03:14:35.346Z,37.66
2023-05-16T03:15:35.406Z,37.63
2023-05-16T03:16:35.493Z,37.68
2023-05-16T03:17:35.557Z,37.66
2023-05-16T03:18:35.560Z,37.70
2023-05-16T03:19:35.583Z,37.66
2023-05-16T03:20:35.626Z,37.69
2023-05-16T03:21:35.676Z,37.67
2023-05-16T03:22:35.765Z,37.69
2023-05-16T03:23:35.798Z,37.64
2023-05-16T03:24:35.886Z,37.64
2023-05-16T03:25:35.930Z,37.64
2023-05-16T03:26:35.984Z,37.66
2023-05-16T03:27:36.037Z,37.64
2023-05-16T03:28:36.120Z,37.62
2023-05-16T03:29:36.188Z,37.62
2023-05-16T03:30:36.271Z,37.67
2023-05-16T03:31:36.384Z,37.64
2023-05-16T03:32:36.430Z,37.63
2023-05-16T03:33:36.479Z,37.59
2023-05-16T03:34:36.514Z,37.62
2023-05-16T03:35:36.545Z,37.60
2023-05-16T03:36:36.589Z,37.63
2023-05-16T03:37:36.652Z,37.60
2023-05-16T03:38:36.706Z,37.59
2023-05-16T03:39:36.744Z,37.62
2023-05-16T03:40:36.784Z,37.58
2023-05-16T03:41:36.817Z,37.59
2023-05-16T03:42:36.847Z,37.62
2023-05-16T03:43:36.892Z,37.59
2023-05-16T03:44:36.938Z,37.59
2023-05-16T03:45:37.745Z,37.62
2023-05-16T03:46:37.004Z,37.64
2023-05-16T03:47:37.084Z,37.60
2023-05-16T03:48:37.056Z,37.57
2023-05-16T03:49:37.101Z,37.56
2023-05-16T03:50:39.513Z,37.57
2023-05-16T03:51:37.161Z,37.60
2023-05-16T03:52:37.180Z,37.59
2023-05-16T03:53:37.176Z,37.60
2023-05-16T03:54:37.185Z,37.59
2023-05-16T03:55:37.195Z,37.56
2023-05-16T03:56:38.233Z,37.55
2023-05-16T03:57:37.284Z,37.57
2023-05-16T03:58:37.228Z,37.59
2023-05-16T03:59:37.239Z,37.57
2023-05-16T04:00:37.264Z,37.55
2023-05-16T04:01:37.294Z,37.59
2023-05-16T04:02:37.492Z,37.56
2023-05-16T04:03:37.269Z,37.58
2023-05-16T04:04:37.282Z,37.59
2023-05-16T04:05:37.330Z,37.56
2023-05-16T04:06:37.329Z,37.53
2023-05-16T04:07:37.336Z,37.55
2023-05-16T04:08:37.339Z,37.57
2023-05-16T04:09:37.349Z,37.54
2023-05-16T04:10:37.367Z,37.56
2023-05-16T04:11:37.390Z,37.53
2023-05-16T04:12:37.403Z,37.55
2023-05-16T04:13:37.459Z,37.48
2023-05-16T04:14:37.443Z,37.56
2023-05-16T04:15:37.457Z,37.55
2023-05-16T04:16:37.498Z,37.56
2023-05-16T04:17:37.525Z,37.52
2023-05-16T04:18:37.533Z,37.52
2023-05-16T04:19:37.506Z,37.52
2023-05-16T04:20:37.521Z,37.49
2023-05-16T04:21:37.528Z,37.55
2023-05-16T04:22:37.567Z,37.53
2023-05-16T04:23:37.549Z,37.52
2023-05-16T04:24:37.565Z,37.52
2023-05-16T04:25:37.579Z,37.53
2023-05-16T04:26:37.586Z,37.56
2023-05-16T04:27:37.626Z,37.48
2023-05-16T04:28:37.625Z,37.53
2023-05-16T04:29:37.635Z,37.50
2023-05-16T04:30:37.665Z,37.48
2023-05-16T04:31:37.741Z,37.52
2023-05-16T04:32:37.703Z,37.56
2023-05-16T04:33:37.688Z,37.52
2023-05-16T04:34:39.737Z,37.51
2023-05-16T04:35:37.740Z,37.49
2023-05-16T04:36:37.713Z,37.52
2023-05-16T04:37:37.730Z,37.46
2023-05-16T04:38:37.751Z,37.49
2023-05-16T04:39:37.745Z,37.48
2023-05-16T04:40:37.758Z,37.48
2023-05-16T04:41:37.777Z,37.46
2023-05-16T04:42:37.793Z,37.52
2023-05-16T04:43:37.796Z,37.42
2023-05-16T04:44:37.812Z,37.46
2023-05-16T04:45:38.057Z,37.48
2023-05-16T04:46:37.875Z,37.46
2023-05-16T04:47:38.681Z,37.49
2023-05-16T04:48:37.866Z,37.44
2023-05-16T04:49:37.887Z,37.43
2023-05-16T04:50:37.901Z,37.42
2023-05-16T04:51:37.903Z,37.45
2023-05-16T04:52:37.929Z,37.49
2023-05-16T04:53:39.803Z,37.46
2023-05-16T04:54:37.950Z,37.48
2023-05-16T04:55:37.950Z,37.40
2023-05-16T04:56:37.966Z,37.45
2023-05-16T04:57:37.980Z,37.42
2023-05-16T04:58:37.990Z,37.47
2023-05-16T04:59:37.996Z,37.42
2023-05-16T05:00:38.002Z,37.49
2023-05-16T05:01:38.089Z,37.44
2023-05-16T05:02:38.057Z,37.44
2023-05-16T05:03:38.063Z,37.41
2023-05-16T05:04:38.096Z,37.41
2023-05-16T05:05:38.202Z,37.41
2023-05-16T05:06:38.082Z,37.41
2023-05-16T05:07:38.082Z,37.37
2023-05-16T05:08:38.096Z,37.42
2023-05-16T05:09:40.203Z,37.41
2023-05-16T05:10:38.136Z,37.40
2023-05-16T05:11:38.150Z,37.41
2023-05-16T05:12:38.217Z,37.40
2023-05-16T05:13:38.195Z,37.45
2023-05-16T05:14:38.255Z,37.42
2023-05-16T05:15:38.297Z,37.39
2023-05-16T05:16:38.334Z,37.42
2023-05-16T05:17:38.452Z,37.46
2023-05-16T05:18:38.607Z,37.42
2023-05-16T05:19:38.637Z,37.42
2023-05-16T05:20:38.537Z,37.46
2023-05-16T05:21:38.586Z,37.46
2023-05-16T05:22:38.615Z,37.48
2023-05-16T05:23:38.646Z,37.52
2023-05-16T05:24:39.631Z,37.50
2023-05-16T05:25:38.752Z,37.52
2023-05-16T05:26:38.768Z,38.03
2023-05-16T05:27:38.827Z,38.01
2023-05-16T05:28:38.889Z,38.45
2023-05-16T05:29:38.970Z,38.98
2023-05-16T05:30:41.186Z,38.30
2023-05-16T05:31:39.064Z,39.74
2023-05-16T05:32:39.167Z,38.99
2023-05-16T05:33:39.083Z,38.94
2023-05-16T05:34:39.102Z,38.86
2023-05-16T05:35:39.111Z,39.03
2023-05-16T05:36:39.134Z,39.09
2023-05-16T05:37:40.123Z,39.97
2023-05-16T05:38:39.131Z,39.51
2023-05-16T05:39:39.146Z,39.09
2023-05-16T05:40:39.178Z,40.60
2023-05-16T05:41:39.233Z,39.49
2023-05-16T05:42:39.167Z,39.53
2023-05-16T05:43:39.167Z,39.77
2023-05-16T05:44:39.175Z,39.52
2023-05-16T05:45:39.218Z,39.91
2023-05-16T05:46:39.179Z,39.97
2023-05-16T05:47:39.270Z,40.25
2023-05-16T05:48:39.222Z,40.42
2023-05-16T05:49:39.213Z,40.41
2023-05-16T05:50:39.205Z,40.36
2023-05-16T05:51:39.197Z,40.56
2023-05-16T05:52:39.203Z,40.48
2023-05-16T05:53:39.217Z,40.85
2023-05-16T05:54:39.213Z,40.82
2023-05-16T05:55:39.210Z,40.80
2023-05-16T05:56:39.205Z,40.00
2023-05-16T05:57:39.216Z,39.02
2023-05-16T05:58:39.211Z,38.67
2023-05-16T05:59:39.216Z,38.60
2023-05-16T06:00:39.222Z,38.56
2023-05-16T06:01:39.245Z,38.39
2023-05-16T06:02:39.318Z,38.30
2023-05-16T06:03:39.291Z,38.46
2023-05-16T06:04:39.237Z,38.49
2023-05-16T06:05:39.304Z,39.15
2023-05-16T06:06:39.243Z,39.07
2023-05-16T06:07:39.276Z,39.60
2023-05-16T06:08:39.255Z,39.25
2023-05-16T06:09:39.234Z,39.07
2023-05-16T06:10:39.241Z,38.87
2023-05-16T06:11:39.241Z,38.83
2023-05-16T06:12:39.232Z,39.73
2023-05-16T06:13:39.262Z,39.72
2023-05-16T06:14:39.230Z,39.69
2023-05-16T06:15:39.233Z,39.80
2023-05-16T06:16:39.307Z,39.63
2023-05-16T06:17:39.279Z,39.18
2023-05-16T06:18:39.297Z,39.27
2023-05-16T06:19:39.304Z,39.28
2023-05-16T06:20:39.330Z,39.66
2023-05-16T06:21:39.341Z,39.91
2023-05-16T06:22:39.363Z,39.54
2023-05-16T06:23:39.385Z,39.34
2023-05-16T06:24:39.395Z,39.49
2023-05-16T06:25:39.413Z,39.92
2023-05-16T06:26:39.435Z,40.11
2023-05-16T06:27:39.487Z,40.30
2023-05-16T06:28:39.455Z,38.63
2023-05-16T06:29:39.481Z,37.45
2023-05-16T06:30:39.568Z,37.03
2023-05-16T06:31:39.647Z,36.94
2023-05-16T06:32:40.606Z,37.05
2023-05-16T06:33:39.721Z,37.16
2023-05-16T06:34:39.759Z,37.02
2023-05-16T06:35:39.789Z,37.08
2023-05-16T06:36:40.653Z,37.12
2023-05-16T06:37:42.085Z,37.40
2023-05-16T06:38:39.844Z,37.66
2023-05-16T06:39:39.961Z,37.75
2023-05-16T06:40:39.895Z,37.86
2023-05-16T06:41:39.905Z,37.91
2023-05-16T06:42:39.915Z,37.94
2023-05-16T06:43:39.929Z,37.95
2023-05-16T06:44:39.953Z,38.12
2023-05-16T06:45:39.954Z,38.32
2023-05-16T06:46:40.045Z,38.45
2023-05-16T06:47:39.978Z,38.39
2023-05-16T06:48:39.987Z,38.58
2023-05-16T06:49:39.959Z,38.49
2023-05-16T06:50:39.967Z,38.95
2023-05-16T06:51:39.951Z,38.89
2023-05-16T06:52:39.954Z,38.72
2023-05-16T06:53:39.965Z,39.21
2023-05-16T06:54:39.957Z,38.98
2023-05-16T06:55:39.953Z,39.84
2023-05-16T06:56:39.964Z,39.38
2023-05-16T06:57:39.957Z,39.27
2023-05-16T06:58:39.962Z,39.12
2023-05-16T06:59:39.977Z,39.25
2023-05-16T07:00:39.977Z,39.33
2023-05-16T07:01:40.077Z,39.54
2023-05-16T07:02:40.034Z,39.45
2023-05-16T07:03:40.045Z,39.61
2023-05-16T07:04:40.046Z,39.63
2023-05-16T07:05:39.991Z,39.76
2023-05-16T07:06:39.994Z,39.62
2023-05-16T07:07:39.996Z,39.67
2023-05-16T07:08:39.990Z,40.68
2023-05-16T07:09:40.007Z,40.27
2023-05-16T07:10:40.011Z,40.07
2023-05-16T07:11:39.998Z,40.08
2023-05-16T07:12:39.990Z,40.19
2023-05-16T07:13:39.996Z,40.01
2023-05-16T07:14:40.001Z,40.74
2023-05-16T07:15:39.989Z,41.02
2023-05-16T07:16:40.059Z,40.57
2023-05-16T07:17:39.996Z,40.35
2023-05-16T07:18:40.017Z,40.29
2023-05-16T07:19:39.994Z,40.56
2023-05-16T07:20:40.058Z,40.57
2023-05-16T07:21:39.976Z,40.61
2023-05-16T07:22:39.962Z,40.35
2023-05-16T07:23:39.972Z,40.37
2023-05-16T07:24:39.954Z,40.24
2023-05-16T07:25:39.957Z,40.51
2023-05-16T07:26:39.940Z,40.41
2023-05-16T07:27:39.937Z,40.54
2023-05-16T07:28:39.920Z,40.60
2023-05-16T07:29:39.925Z,40.66
2023-05-16T07:30:40.043Z,40.62
2023-05-16T07:31:39.959Z,40.69
2023-05-16T07:32:39.977Z,40.65
2023-05-16T07:33:39.925Z,40.78
2023-05-16T07:34:39.922Z,40.81
2023-05-16T07:35:40.255Z,40.82
2023-05-16T07:36:39.949Z,40.81
2023-05-16T07:37:39.966Z,40.87
2023-05-16T07:38:39.909Z,40.87
2023-05-16T07:39:39.911Z,40.88
2023-05-16T07:40:39.930Z,40.94
2023-05-16T07:41:39.913Z,40.95
2023-05-16T07:42:39.900Z,41.04
2023-05-16T07:43:39.914Z,41.09
2023-05-16T07:44:39.948Z,41.14
2023-05-16T07:45:39.946Z,41.13
2023-05-16T07:46:40.216Z,41.13
2023-05-16T07:47:39.937Z,41.16
2023-05-16T07:48:39.912Z,41.16
2023-05-16T07:49:39.920Z,41.11
2023-05-16T07:50:39.920Z,41.15
2023-05-16T07:51:39.926Z,41.17
2023-05-16T07:52:40.723Z,41.26
2023-05-16T07:53:39.936Z,41.20
2023-05-16T07:54:39.917Z,41.18
2023-05-16T07:55:40.273Z,41.16
2023-05-16T07:56:39.926Z,41.21
2023-05-16T07:57:39.950Z,41.13
2023-05-16T07:58:39.940Z,41.14
2023-05-16T07:59:39.972Z,41.16
2023-05-16T08:00:39.932Z,41.14
2023-05-16T08:01:39.928Z,41.09
2023-05-16T08:02:40.128Z,41.12
2023-05-16T08:03:40.038Z,41.07
2023-05-16T08:04:39.939Z,41.09
2023-05-16T08:05:40.776Z,41.09
2023-05-16T08:06:39.956Z,41.08
2023-05-16T08:07:39.961Z,41.09
2023-05-16T08:08:40.012Z,41.04
2023-05-16T08:09:40.083Z,41.07
2023-05-16T08:10:39.977Z,41.06
2023-05-16T08:11:39.988Z,41.04
2023-05-16T08:12:39.973Z,41.01
2023-05-16T08:13:39.975Z,41.02
2023-05-16T08:14:39.975Z,40.71
2023-05-16T08:15:40.032Z,40.63
2023-05-16T08:16:40.023Z,41.27
2023-05-16T08:17:39.996Z,40.98
2023-05-16T08:18:40.016Z,40.54
2023-05-16T08:19:39.961Z,40.44
2023-05-16T08:20:39.954Z,40.48
2023-05-16T08:21:39.945Z,40.60
2023-05-16T08:22:39.972Z,39.98
2023-05-16T08:23:39.956Z,40.51
2023-05-16T08:24:39.982Z,40.56
2023-05-16T08:25:39.960Z,40.45
2023-05-16T08:26:39.954Z,40.49
2023-05-16T08:27:39.961Z,39.08
2023-05-16T08:28:39.960Z,37.99
2023-05-16T08:29:39.976Z,37.44
2023-05-16T08:30:42.536Z,37.44
2023-05-16T08:31:39.995Z,37.16
2023-05-16T08:32:40.034Z,37.43
2023-05-16T08:33:39.965Z,37.98
2023-05-16T08:34:39.971Z,38.03
2023-05-16T08:35:39.976Z,38.14
2023-05-16T08:36:39.976Z,38.22
2023-05-16T08:37:39.997Z,38.47
2023-05-16T08:38:39.982Z,38.73
2023-05-16T08:39:39.985Z,38.91
2023-05-16T08:40:40.079Z,39.10
2023-05-16T08:41:39.994Z,39.07
2023-05-16T08:42:40.000Z,39.14
2023-05-16T08:43:39.991Z,39.29
2023-05-16T08:44:39.993Z,39.34
2023-05-16T08:45:39.983Z,39.49
2023-05-16T08:46:40.012Z,39.59
2023-05-16T08:47:40.069Z,39.54
2023-05-16T08:48:39.990Z,40.73
2023-05-16T08:49:39.983Z,40.89
2023-05-16T08:50:39.965Z,40.23
2023-05-16T08:51:39.980Z,39.85
2023-05-16T08:52:39.964Z,39.61
2023-05-16T08:53:39.975Z,40.25
2023-05-16T08:54:39.952Z,40.21
2023-05-16T08:55:39.950Z,40.61
2023-05-16T08:56:39.968Z,40.14
2023-05-16T08:57:39.920Z,40.18
2023-05-16T08:58:39.915Z,40.27
2023-05-16T08:59:39.911Z,40.05
2023-05-16T09:00:39.966Z,40.08
2023-05-16T09:01:39.978Z,40.31
2023-05-16T09:02:39.933Z,40.17
2023-05-16T09:03:39.907Z,39.91
2023-05-16T09:04:39.858Z,40.10
2023-05-16T09:05:39.861Z,40.00
2023-05-16T09:06:39.855Z,39.75
2023-05-16T09:07:39.850Z,40.17
2023-05-16T09:08:39.831Z,40.03
2023-05-16T09:09:39.831Z,40.79
2023-05-16T09:10:39.805Z,40.51
2023-05-16T09:11:39.794Z,40.60
2023-05-16T09:12:39.793Z,40.57
2023-05-16T09:13:39.798Z,40.68
2023-05-16T09:14:39.773Z,40.29
2023-05-16T09:15:39.773Z,40.30
2023-05-16T09:16:39.823Z,41.08
2023-05-16T09:17:43.099Z,40.89
2023-05-16T09:18:39.836Z,40.19
2023-05-16T09:19:39.778Z,40.11
2023-05-16T09:20:39.721Z,40.13
2023-05-16T09:21:39.718Z,40.16
2023-05-16T09:22:39.737Z,40.02
2023-05-16T09:23:39.726Z,40.01
2023-05-16T09:24:40.219Z,40.08
2023-05-16T09:25:39.709Z,40.13
2023-05-16T09:26:39.708Z,40.25
2023-05-16T09:27:39.683Z,40.27
2023-05-16T09:28:39.784Z,40.28
2023-05-16T09:29:39.689Z,40.29
2023-05-16T09:30:39.693Z,40.42
2023-05-16T09:31:39.689Z,40.33
2023-05-16T09:32:39.700Z,40.40
2023-05-16T09:33:39.672Z,40.29
2023-05-16T09:34:39.676Z,40.28
2023-05-16T09:35:45.351Z,40.41
2023-05-16T09:36:42.886Z,40.35
2023-05-16T09:37:39.658Z,40.34
2023-05-16T09:38:39.663Z,40.36
2023-05-16T09:39:40.224Z,40.35
2023-05-16T09:40:39.670Z,40.31
2023-05-16T09:41:39.710Z,40.22
2023-05-16T09:42:39.670Z,40.15
2023-05-16T09:43:41.669Z,40.30
2023-05-16T09:44:39.782Z,40.22
2023-05-16T09:45:40.147Z,40.22
2023-05-16T09:46:39.699Z,40.17
2023-05-16T09:47:39.698Z,40.12
2023-05-16T09:48:39.666Z,40.01
2023-05-16T09:49:39.693Z,40.12
2023-05-16T09:50:39.722Z,40.15
2023-05-16T09:51:39.746Z,40.09
2023-05-16T09:52:39.752Z,40.16
2023-05-16T09:53:39.790Z,40.21
2023-05-16T09:54:39.818Z,40.24
2023-05-16T09:55:39.862Z,40.21
2023-05-16T09:56:39.880Z,40.09
2023-05-16T09:57:39.898Z,40.07
2023-05-16T09:58:39.921Z,40.06
2023-05-16T09:59:39.953Z,40.07
2023-05-16T10:00:41.984Z,40.11
2023-05-16T10:01:40.047Z,40.05
2023-05-16T10:02:40.108Z,40.01
2023-05-16T10:03:40.258Z,40.05
2023-05-16T10:04:40.140Z,39.94
2023-05-16T10:05:40.176Z,39.92
2023-05-16T10:06:40.255Z,39.83
2023-05-16T10:07:40.251Z,39.84
2023-05-16T10:08:40.283Z,39.80
2023-05-16T10:09:40.328Z,39.83
2023-05-16T10:10:40.368Z,39.91
2023-05-16T10:11:40.409Z,39.98
2023-05-16T10:12:40.533Z,39.87
2023-05-16T10:13:40.470Z,39.82
2023-05-16T10:14:40.570Z,39.77
2023-05-16T10:15:41.284Z,39.76
2023-05-16T10:16:40.667Z,39.79
2023-05-16T10:17:41.315Z,39.80
2023-05-16T10:18:40.715Z,39.74
2023-05-16T10:19:41.239Z,39.71
2023-05-16T10:20:41.749Z,39.70
2023-05-16T10:21:40.782Z,39.67
2023-05-16T10:22:40.896Z,39.70
2023-05-16T10:23:40.863Z,39.74
2023-05-16T10:24:40.896Z,39.69
2023-05-16T10:25:40.951Z,39.63
2023-05-16T10:26:40.995Z,39.67
2023-05-16T10:27:41.025Z,39.55
2023-05-16T10:28:41.071Z,39.49
2023-05-16T10:29:53.338Z,39.49
2023-05-16T10:30:42.124Z,39.49
2023-05-16T10:31:41.145Z,39.50
2023-05-16T10:32:42.867Z,39.52
2023-05-16T10:33:41.173Z,39.56
2023-05-16T10:34:41.144Z,39.49
2023-05-16T10:35:41.144Z,39.52
2023-05-16T10:36:41.145Z,39.45
2023-05-16T10:37:41.141Z,39.50
2023-05-16T10:38:41.167Z,39.50
2023-05-16T10:39:41.162Z,39.53
2023-05-16T10:40:41.168Z,39.51
2023-05-16T10:41:41.174Z,39.38
2023-05-16T10:42:41.169Z,39.39
2023-05-16T10:43:44.471Z,39.46
2023-05-16T10:44:42.777Z,39.38
2023-05-16T10:45:42.269Z,39.46
2023-05-16T10:46:41.237Z,39.40
2023-05-16T10:47:41.240Z,39.33
2023-05-16T10:48:41.283Z,39.33
2023-05-16T10:49:41.220Z,39.16
2023-05-16T10:50:41.223Z,39.11
2023-05-16T10:51:41.265Z,38.90
2023-05-16T10:52:41.302Z,39.02
2023-05-16T10:53:41.270Z,39.07
2023-05-16T10:54:41.271Z,39.32
2023-05-16T10:55:41.270Z,39.49
2023-05-16T10:56:41.292Z,40.17
2023-05-16T10:57:42.173Z,40.36
2023-05-16T10:58:41.338Z,40.27
2023-05-16T10:59:41.389Z,40.17
2023-05-16T11:00:41.431Z,40.08
2023-05-16T11:01:41.517Z,39.97
2023-05-16T11:02:41.683Z,39.88
2023-05-16T11:03:43.427Z,39.82
2023-05-16T11:04:41.634Z,39.80
2023-05-16T11:05:41.679Z,39.82
2023-05-16T11:06:41.740Z,39.72
2023-05-16T11:07:41.779Z,39.69
2023-05-16T11:08:41.833Z,39.70
2023-05-16T11:09:41.897Z,39.72
2023-05-16T11:10:41.934Z,39.74
2023-05-16T11:11:41.983Z,39.73
2023-05-16T11:12:42.029Z,39.73
2023-05-16T11:13:42.072Z,39.70
2023-05-16T11:14:42.172Z,39.75
2023-05-16T11:15:42.178Z,39.70
2023-05-16T11:16:42.244Z,39.69
2023-05-16T11:17:44.058Z,39.68
2023-05-16T11:18:42.285Z,39.66
2023-05-16T11:19:42.305Z,39.68
2023-05-16T11:20:42.355Z,39.66
2023-05-16T11:21:42.309Z,39.65
2023-05-16T11:22:42.317Z,39.61
2023-05-16T11:23:42.317Z,39.63
2023-05-16T11:24:42.328Z,39.63
2023-05-16T11:25:42.330Z,39.60
2023-05-16T11:26:42.357Z,39.60
2023-05-16T11:27:43.400Z,39.58
2023-05-16T11:28:42.349Z,39.58
2023-05-16T11:29:42.349Z,39.55
2023-05-16T11:30:42.359Z,39.60
2023-05-16T11:31:42.442Z,39.61
2023-05-16T11:32:42.442Z,39.58
2023-05-16T11:33:42.412Z,39.57
2023-05-16T11:34:42.408Z,39.58
2023-05-16T11:35:42.438Z,39.54
2023-05-16T11:36:42.414Z,39.55
2023-05-16T11:37:42.426Z,39.53
2023-05-16T11:38:42.426Z,39.53
2023-05-16T11:39:42.469Z,39.58
2023-05-16T11:40:42.457Z,39.52
2023-05-16T11:41:42.487Z,39.57
2023-05-16T11:42:42.518Z,39.54
2023-05-16T11:43:42.554Z,39.55
2023-05-16T11:44:42.620Z,39.54
2023-05-16T11:45:42.645Z,39.53
2023-05-16T11:46:42.729Z,39.51
2023-05-16T11:47:42.778Z,39.57
2023-05-16T11:48:42.878Z,39.55
2023-05-16T11:49:42.836Z,39.52
2023-05-16T11:50:42.889Z,39.55
2023-05-16T11:51:42.944Z,39.54
2023-05-16T11:52:42.997Z,39.57
2023-05-16T11:53:43.038Z,39.53
2023-05-16T11:54:43.074Z,39.53
2023-05-16T11:55:43.203Z,39.52
2023-05-16T11:56:43.205Z,39.53
2023-05-16T11:57:43.234Z,39.50
2023-05-16T11:58:43.274Z,39.49
2023-05-16T11:59:43.339Z,39.53
2023-05-16T12:00:43.372Z,39.47
2023-05-16T12:01:43.428Z,39.53
2023-05-16T12:02:43.606Z,39.50
2023-05-16T12:03:43.689Z,39.59
2023-05-16T12:04:43.793Z,39.63
2023-05-16T12:05:43.672Z,39.84
2023-05-16T12:06:43.700Z,39.95
2023-05-16T12:07:43.808Z,39.98
2023-05-16T12:08:43.770Z,40.01
2023-05-16T12:09:43.812Z,39.90
2023-05-16T12:10:43.836Z,40.00
2023-05-16T12:11:43.874Z,39.76
2023-05-16T12:12:43.895Z,40.00
2023-05-16T12:13:43.926Z,40.13
2023-05-16T12:14:43.948Z,40.21
2023-05-16T12:15:43.969Z,40.19
2023-05-16T12:16:44.145Z,40.38
2023-05-16T12:17:44.790Z,40.28
2023-05-16T12:18:44.114Z,40.54
2023-05-16T12:19:44.068Z,40.71
2023-05-16T12:20:44.089Z,40.63
2023-05-16T12:21:44.118Z,40.97
2023-05-16T12:22:44.120Z,40.76
2023-05-16T12:23:44.139Z,40.89
2023-05-16T12:24:44.173Z,40.98
2023-05-16T12:25:44.174Z,41.05
2023-05-16T12:26:44.184Z,41.17
2023-05-16T12:27:45.733Z,41.21
2023-05-16T12:28:44.207Z,41.43
2023-05-16T12:29:44.233Z,41.65
2023-05-16T12:30:44.257Z,41.59
2023-05-16T12:31:44.330Z,41.66
2023-05-16T12:32:44.432Z,41.86
2023-05-16T12:33:44.400Z,41.78
2023-05-16T12:34:44.301Z,41.77
2023-05-16T12:35:44.318Z,41.93
2023-05-16T12:36:44.336Z,41.90
2023-05-16T12:37:44.371Z,41.82
2023-05-16T12:38:46.270Z,41.93
2023-05-16T12:39:44.472Z,41.97
2023-05-16T12:40:44.425Z,42.27
2023-05-16T12:41:44.481Z,42.17
2023-05-16T12:42:44.465Z,42.46
2023-05-16T12:43:44.469Z,42.43
2023-05-16T12:44:44.484Z,42.45
2023-05-16T12:45:44.498Z,42.39
2023-05-16T12:46:44.545Z,42.52
2023-05-16T12:47:44.531Z,42.39
2023-05-16T12:48:44.526Z,42.25
2023-05-16T12:49:44.531Z,42.67
2023-05-16T12:50:44.528Z,42.66
2023-05-16T12:51:44.556Z,42.72
2023-05-16T12:52:44.556Z,42.59